Time;durP1;ratioP1;P1;durP2;ratioP2;P2;SDS_P1;SDS_P2;PMS_P1;PMS_P2;Temp;Humidity;BMP_temperature;BMP_pressure;BME280_temperature;BME280_humidity;BME280_pressure;Samples;Min_cycle;Max_cycle;Signal;HPM_P1;HPM_P2
2023/03/05 00:00:15;;;;;;;48.83;32.57;;;;;;;6.82;96.27;99119.97;5053895;28;20204;-70
2023/03/05 00:02:42;;;;;;;52.37;33.23;;;;;;;6.70;96.42;99118.78;5053647;28;20208;-70
2023/03/05 00:05:09;;;;;;;51.07;32.77;;;;;;;6.54;96.63;99118.13;5066569;28;20218;-69
2023/03/05 00:07:36;;;;;;;45.20;30.73;;;;;;;6.49;98.32;99112.56;5073923;28;20189;-69
2023/03/05 00:10:05;;;;;;;48.43;31.93;;;;;;;6.53;99.15;99103.31;5073722;28;20246;-69
2023/03/05 00:12:31;;;;;;;50.10;30.77;;;;;;;6.54;99.40;99110.22;5073374;28;20276;-69
2023/03/05 00:14:59;;;;;;;45.47;31.73;;;;;;;6.48;99.12;99110.91;5073634;28;20630;-70
2023/03/05 00:17:26;;;;;;;50.80;32.37;;;;;;;6.46;98.57;99119.03;5055280;28;20197;-70
2023/03/05 00:19:53;;;;;;;55.17;33.20;;;;;;;6.49;98.25;99112.56;5053202;28;20242;-70
2023/03/05 00:22:19;;;;;;;50.63;30.90;;;;;;;6.45;97.76;99106.03;5053610;28;20204;-70
2023/03/05 00:24:46;;;;;;;54.87;34.23;;;;;;;6.36;97.72;99107.09;5053388;28;20193;-69
2023/03/05 00:27:13;;;;;;;56.90;33.77;;;;;;;6.26;98.95;99106.50;5053513;28;20227;-68
2023/03/05 00:29:40;;;;;;;50.33;32.67;;;;;;;6.26;98.91;99101.25;5072797;28;20195;-67
2023/03/05 00:32:08;;;;;;;57.77;32.73;;;;;;;6.33;100.00;99091.63;5073336;28;20223;-67
2023/03/05 00:34:36;;;;;;;56.43;33.70;;;;;;;6.36;100.00;99086.00;5072848;28;20549;-69
2023/03/05 00:37:03;;;;;;;49.73;32.50;;;;;;;6.40;100.00;99084.63;5073237;28;20212;-69
2023/03/05 00:39:29;;;;;;;50.90;32.07;;;;;;;6.45;100.00;99079.63;5067790;28;20193;-69
2023/03/05 00:41:56;;;;;;;55.33;34.17;;;;;;;6.46;99.77;99081.28;5052876;28;20197;-69
2023/03/05 00:44:23;;;;;;;47.30;33.13;;;;;;;6.48;98.28;99073.97;5052945;28;20622;-70
2023/03/05 00:46:49;;;;;;;55.90;33.77;;;;;;;6.50;98.35;99078.09;5053068;28;20188;-70
2023/03/05 00:49:17;;;;;;;54.90;35.43;;;;;;;6.52;97.47;99076.09;5053002;28;20250;-71
2023/03/05 00:51:44;;;;;;;53.30;33.33;;;;;;;6.51;97.02;99069.19;5052521;28;20234;-71
2023/03/05 00:54:11;;;;;;;43.17;30.93;;;;;;;6.49;97.14;99070.38;5052513;28;20250;-69
2023/03/05 00:56:38;;;;;;;49.63;32.97;;;;;;;6.50;97.60;99066.72;5052907;28;20257;-71
2023/03/05 00:59:04;;;;;;;54.80;32.60;;;;;;;6.54;97.09;99070.63;5052504;28;20234;-70
2023/03/05 01:01:31;;;;;;;46.27;30.40;;;;;;;6.49;97.65;99062.47;5071853;28;20586;-71
2023/03/05 01:03:59;;;;;;;45.80;30.43;;;;;;;6.49;97.82;99062.47;5072634;28;20188;-70
2023/03/05 01:06:28;;;;;;;50.23;33.27;;;;;;;6.48;97.16;99068.69;5072377;28;20195;-70
2023/03/05 01:08:56;;;;;;;55.70;34.67;;;;;;;6.40;96.75;99066.19;5072211;28;20671;-71
2023/03/05 01:11:22;;;;;;;54.27;34.67;;;;;;;6.23;97.26;99064.66;5053096;28;20203;-71
2023/03/05 01:13:49;;;;;;;49.60;34.23;;;;;;;6.22;98.08;99063.03;5052130;28;20223;-70
2023/03/05 01:16:16;;;;;;;56.60;32.97;;;;;;;6.24;98.21;99061.06;5052513;28;20198;-68
2023/03/05 01:18:42;;;;;;;57.60;33.93;;;;;;;6.22;97.42;99068.31;5061534;28;20199;-69
2023/03/05 01:21:10;;;;;;;51.47;31.77;;;;;;;6.18;97.23;99067.03;5072026;28;20192;-69
2023/03/05 01:23:38;;;;;;;51.80;33.77;;;;;;;6.12;97.80;99067.75;5072096;28;20661;-69
2023/03/05 01:26:07;;;;;;;49.20;34.00;;;;;;;5.97;98.08;99064.25;5071952;28;20244;-70
2023/03/05 01:28:34;;;;;;;55.57;33.57;;;;;;;6.02;99.72;99062.72;5064144;28;20707;-69
2023/03/05 01:31:01;;;;;;;57.97;34.50;;;;;;;6.09;99.65;99053.13;5051911;28;20196;-69
2023/03/05 01:33:28;;;;;;;48.17;32.07;;;;;;;6.14;99.28;99055.19;5051895;28;20285;-69
2023/03/05 01:35:54;;;;;;;44.80;30.97;;;;;;;5.99;99.72;99057.78;5051830;28;20676;-69
2023/03/05 01:38:21;;;;;;;47.30;31.27;;;;;;;5.92;99.93;99046.31;5052298;28;20258;-68
2023/03/05 01:40:49;;;;;;;48.70;31.83;;;;;;;5.88;100.00;99045.03;5061536;28;20197;-68
2023/03/05 01:43:24;;;;;;;50.70;31.23;;;;;;;5.85;100.00;99049.84;5072191;28;20201;-68
2023/03/05 01:46:23;;;;;;;46.73;30.80;;;;;;;5.90;100.00;99055.41;5071235;28;20236;-68
2023/03/05 01:48:54;;;;;;;49.73;30.67;;;;;;;5.86;100.00;99051.47;5072111;28;20263;-69
2023/03/05 01:51:24;;;;;;;50.77;32.20;;;;;;;5.80;100.00;99050.34;5071729;28;20249;-68
2023/03/05 01:53:53;;;;;;;55.17;33.70;;;;;;;5.86;100.00;99043.56;5043178;28;20200;-69
2023/03/05 01:56:21;;;;;;;46.83;31.57;;;;;;;5.94;100.00;99032.97;5051627;28;20193;-69
2023/03/05 01:58:49;;;;;;;51.70;33.07;;;;;;;6.00;100.00;99043.63;5051425;28;20657;-68
2023/03/05 02:01:16;;;;;;;50.37;31.73;;;;;;;6.05;100.00;99051.00;5051543;28;20251;-68
2023/03/05 02:03:43;;;;;;;46.50;31.90;;;;;;;6.02;100.00;99057.44;5052119;28;20275;-69
2023/03/05 02:06:10;;;;;;;48.83;31.27;;;;;;;6.07;100.00;99049.00;5051473;28;20197;-68
2023/03/05 02:08:37;;;;;;;48.47;31.17;;;;;;;6.03;100.00;99042.44;5051895;28;20192;-68
2023/03/05 02:11:04;;;;;;;47.43;31.83;;;;;;;5.97;100.00;99037.88;5051985;28;20196;-68
2023/03/05 02:13:37;;;;;;;51.53;31.87;;;;;;;6.04;100.00;99044.09;5051835;28;20294;-68
2023/03/05 02:16:04;;;;;;;46.17;30.47;;;;;;;6.12;100.00;99034.28;5059106;28;20563;-69
2023/03/05 02:18:31;;;;;;;44.37;30.00;;;;;;;6.13;100.00;99037.75;5072007;28;20215;-68
2023/03/05 02:21:03;;;;;;;48.43;32.53;;;;;;;6.13;100.00;99035.13;5071396;28;20184;-68
2023/03/05 02:23:35;;;;;;;48.10;31.00;;;;;;;6.05;99.71;99035.19;5074740;28;20195;-68
2023/03/05 02:26:02;;;;;;;42.10;29.77;;;;;;;6.07;100.00;99028.72;5075401;28;20608;-68
2023/03/05 02:28:35;;;;;;;48.80;29.77;;;;;;;6.13;100.00;99022.75;5074495;28;20222;-68
2023/03/05 02:31:02;;;;;;;49.60;30.43;;;;;;;6.18;100.00;99024.84;5075630;28;20186;-69
2023/03/05 02:33:29;;;;;;;50.53;30.90;;;;;;;6.21;99.96;99020.00;5075555;28;20224;-68
2023/03/05 02:35:55;;;;;;;55.63;31.60;;;;;;;6.26;99.04;99019.50;5075480;28;20192;-68
2023/03/05 02:38:23;;;;;;;49.73;31.10;;;;;;;6.32;98.52;99021.41;5075564;28;20191;-68
2023/03/05 02:40:50;;;;;;;47.40;30.70;;;;;;;6.37;98.67;99024.31;5061712;28;20242;-68
2023/03/05 02:43:17;;;;;;;49.57;29.87;;;;;;;6.42;98.72;99027.22;5055432;28;20196;-68
2023/03/05 02:45:44;;;;;;;44.43;29.10;;;;;;;6.46;98.67;99024.06;5055248;28;20188;-69
2023/03/05 02:48:10;;;;;;;49.57;30.23;;;;;;;6.51;97.95;99026.16;5055080;28;20191;-68
2023/03/05 02:50:38;;;;;;;45.93;30.40;;;;;;;6.53;97.32;99010.97;5055214;28;20246;-68
2023/03/05 02:53:05;;;;;;;44.90;29.83;;;;;;;6.39;97.30;99012.59;5054814;28;20786;-69
2023/03/05 02:55:34;;;;;;;42.90;27.97;;;;;;;6.45;97.45;99021.59;5054862;28;20286;-69
2023/03/05 02:58:01;;;;;;;44.30;28.57;;;;;;;6.54;97.99;99020.50;5054462;28;20246;-70
2023/03/05 03:00:28;;;;;;;41.90;28.43;;;;;;;6.59;97.96;99026.06;5055387;28;20267;-69
2023/03/05 03:02:54;;;;;;;44.10;26.73;;;;;;;6.59;98.09;99031.34;5055133;28;20262;-68
2023/03/05 03:05:21;;;;;;;44.00;28.10;;;;;;;6.57;97.21;99028.06;5054580;28;20675;-68
2023/03/05 03:07:49;;;;;;;40.83;27.97;;;;;;;6.56;97.68;99029.06;5055117;28;20197;-67
2023/03/05 03:10:16;;;;;;;47.40;28.80;;;;;;;6.60;98.33;99025.03;5054825;28;20218;-68
2023/03/05 03:12:45;;;;;;;37.97;28.37;;;;;;;6.66;98.37;99024.34;5054826;28;20384;-68
2023/03/05 03:15:14;;;;;;;43.07;28.07;;;;;;;6.69;97.51;99021.34;5054518;28;20196;-69
2023/03/05 03:17:41;;;;;;;41.63;27.73;;;;;;;6.74;97.22;99021.59;5054941;28;20224;-69
2023/03/05 03:20:10;;;;;;;41.90;27.07;;;;;;;6.73;96.77;99015.50;5054740;28;20203;-69
2023/03/05 03:22:37;;;;;;;38.77;26.27;;;;;;;6.77;96.84;99015.97;5057296;28;20251;-70
2023/03/05 03:25:05;;;;;;;39.03;25.53;;;;;;;6.80;96.32;99015.56;5074678;28;20191;-69
2023/03/05 03:27:32;;;;;;;36.13;25.40;;;;;;;6.79;96.28;99020.06;5074257;28;20192;-69
2023/03/05 03:30:03;;;;;;;36.47;25.07;;;;;;;6.83;96.27;99020.50;5074668;28;20251;-69
2023/03/05 03:32:30;;;;;;;39.43;25.30;;;;;;;6.86;96.61;99018.28;5074286;28;20188;-69
2023/03/05 03:34:57;;;;;;;37.57;27.07;;;;;;;6.88;96.37;99018.13;5073450;28;20247;-69
2023/03/05 03:37:24;;;;;;;34.43;23.87;;;;;;;6.89;95.63;99022.38;5074350;28;20280;-69
2023/03/05 03:39:51;;;;;;;33.50;24.37;;;;;;;6.90;96.14;99014.28;5074400;28;20253;-69
2023/03/05 03:42:17;;;;;;;26.80;21.57;;;;;;;6.92;95.79;99016.75;5068670;28;20196;-69
2023/03/05 03:44:44;;;;;;;33.20;22.83;;;;;;;6.86;95.42;99020.94;5057725;28;20613;-69
2023/03/05 03:47:12;;;;;;;35.83;23.30;;;;;;;6.71;95.65;99021.97;5053868;28;20199;-69
2023/03/05 03:49:39;;;;;;;32.77;22.87;;;;;;;6.63;95.40;99024.69;5054289;28;20192;-69
2023/03/05 03:52:06;;;;;;;37.33;23.87;;;;;;;6.54;95.66;99009.97;5063710;28;20197;-69
2023/03/05 03:54:34;;;;;;;35.03;22.63;;;;;;;6.57;96.65;99002.50;5074277;28;20225;-69
2023/03/05 03:57:01;;;;;;;32.63;23.83;;;;;;;6.60;96.86;99004.78;5073767;28;20549;-68
2023/03/05 03:59:27;;;;;;;36.67;24.67;;;;;;;6.60;97.20;99010.03;5057548;28;20216;-68
2023/03/05 04:01:54;;;;;;;31.03;23.00;;;;;;;6.61;97.49;99005.59;5053944;28;20192;-68
2023/03/05 04:04:22;;;;;;;34.13;23.77;;;;;;;6.61;96.19;99008.25;5062234;28;20200;-68
2023/03/05 04:06:49;;;;;;;39.27;24.00;;;;;;;6.59;95.68;99018.13;5073565;28;20593;-68
2023/03/05 04:09:15;;;;;;;38.80;24.70;;;;;;;6.60;96.16;99012.69;5073862;28;20242;-69
2023/03/05 04:11:42;;;;;;;36.93;24.10;;;;;;;6.59;96.15;99023.41;5072287;28;20239;-69
2023/03/05 04:14:09;;;;;;;32.87;24.57;;;;;;;6.50;96.13;99003.41;5053430;28;20673;-68
2023/03/05 04:16:35;;;;;;;36.20;23.87;;;;;;;6.48;96.14;99027.31;5053772;28;20281;-68
2023/03/05 04:19:02;;;;;;;42.43;25.73;;;;;;;6.49;96.38;99018.41;5053664;28;20192;-69
2023/03/05 04:21:30;;;;;;;30.73;22.67;;;;;;;6.49;96.82;99017.59;5053179;28;20671;-69
2023/03/05 04:23:57;;;;;;;37.97;24.27;;;;;;;6.54;96.97;99020.50;5071972;28;20249;-69
2023/03/05 04:26:23;;;;;;;32.13;22.23;;;;;;;6.56;96.60;99013.22;5073436;28;20196;-68
2023/03/05 04:28:50;;;;;;;31.03;21.73;;;;;;;6.55;95.31;99022.16;5073152;28;20227;-69
2023/03/05 04:31:19;;;;;;;31.70;22.37;;;;;;;6.54;95.44;99016.06;5073061;28;20620;-69
2023/03/05 04:33:45;;;;;;;28.20;20.93;;;;;;;6.54;95.52;99015.25;5072440;28;20227;-69
2023/03/05 04:36:12;;;;;;;31.17;21.67;;;;;;;6.53;94.97;99022.31;5052904;28;20256;-69
2023/03/05 04:38:40;;;;;;;35.30;22.47;;;;;;;6.54;95.07;99020.50;5052952;28;20200;-69
2023/03/05 04:41:07;;;;;;;36.63;22.67;;;;;;;6.51;95.78;99021.69;5053252;28;20192;-68
2023/03/05 04:43:34;;;;;;;27.23;21.63;;;;;;;6.53;95.32;99027.59;5052881;28;20691;-69
2023/03/05 04:46:00;;;;;;;32.10;21.83;;;;;;;6.55;94.85;99027.41;5055911;28;20192;-69
2023/03/05 04:48:27;;;;;;;30.37;20.77;;;;;;;6.56;94.45;99021.97;5072652;28;20192;-68
2023/03/05 04:50:54;;;;;;;30.93;22.50;;;;;;;6.58;94.70;99022.63;5073040;28;20192;-68
2023/03/05 04:53:20;;;;;;;34.00;21.73;;;;;;;6.52;94.89;99017.22;5072814;28;20219;-69
2023/03/05 04:55:53;;;;;;;30.90;21.67;;;;;;;6.40;94.01;99022.13;5072788;28;20196;-69
2023/03/05 04:58:20;;;;;;;31.17;21.13;;;;;;;6.38;94.49;99015.41;5064628;28;20228;-69
2023/03/05 05:00:47;;;;;;;29.00;21.10;;;;;;;6.34;94.64;99020.25;5052499;28;20188;-69
2023/03/05 05:03:14;;;;;;;32.10;22.20;;;;;;;6.31;94.90;99017.13;5052695;28;20274;-69
2023/03/05 05:05:40;;;;;;;33.37;21.77;;;;;;;6.37;94.85;99024.31;5052431;28;20657;-69
2023/03/05 05:08:07;;;;;;;31.17;22.57;;;;;;;6.36;93.92;99022.69;5052349;28;20663;-69
2023/03/05 05:10:34;;;;;;;26.13;20.57;;;;;;;6.33;94.04;99028.31;5052573;28;20204;-69
2023/03/05 05:13:02;;;;;;;32.67;21.63;;;;;;;6.39;94.58;99022.31;5052527;28;20736;-69
2023/03/05 05:15:28;;;;;;;31.00;21.83;;;;;;;6.30;94.60;99020.75;5052576;28;20197;-70
2023/03/05 05:17:55;;;;;;;31.13;21.80;;;;;;;6.30;95.00;99024.25;5052076;28;20193;-69
2023/03/05 05:20:22;;;;;;;32.00;22.17;;;;;;;6.35;95.43;99015.75;5052319;28;20704;-69
2023/03/05 05:22:49;;;;;;;38.60;26.40;;;;;;;6.44;95.44;99019.94;5052114;28;20199;-70
2023/03/05 05:25:15;;;;;;;55.87;34.70;;;;;;;6.52;95.40;99028.59;5052577;28;20204;-69
2023/03/05 05:27:42;;;;;;;49.20;35.03;;;;;;;6.55;95.11;99030.06;5052079;28;20581;-69
2023/03/05 05:30:12;;;;;;;41.87;28.27;;;;;;;6.59;95.49;99036.59;5052268;28;20192;-68
2023/03/05 05:32:38;;;;;;;36.50;24.20;;;;;;;6.57;94.91;99033.34;5052369;28;20196;-69
2023/03/05 05:35:06;;;;;;;35.17;23.37;;;;;;;6.60;94.75;99040.88;5051804;28;20288;-69
2023/03/05 05:37:33;;;;;;;31.10;24.27;;;;;;;6.68;95.39;99041.63;5072182;28;20188;-69
2023/03/05 05:39:59;;;;;;;42.73;26.67;;;;;;;6.76;94.25;99041.53;5072217;28;20241;-69
2023/03/05 05:42:28;;;;;;;34.57;24.67;;;;;;;6.86;94.40;99042.06;5072159;28;20196;-69
2023/03/05 05:44:55;;;;;;;35.23;23.30;;;;;;;6.87;92.90;99048.16;5072190;28;20290;-68
2023/03/05 05:47:23;;;;;;;36.33;22.50;;;;;;;6.94;93.07;99054.34;5070443;28;20197;-70
2023/03/05 05:49:49;;;;;;;39.17;22.03;;;;;;;7.04;92.77;99054.88;5052050;28;20193;-69
2023/03/05 05:52:16;;;;;;;28.47;21.23;;;;;;;7.11;93.06;99053.94;5051996;28;20192;-70
2023/03/05 05:54:43;;;;;;;39.13;21.27;;;;;;;7.15;93.18;99052.56;5051711;28;20233;-68
2023/03/05 05:57:10;;;;;;;36.27;21.23;;;;;;;7.15;92.40;99057.06;5051761;28;20188;-69
2023/03/05 05:59:37;;;;;;;33.93;21.77;;;;;;;7.24;92.46;99056.78;5051621;28;20220;-69
2023/03/05 06:02:04;;;;;;;30.43;22.57;;;;;;;7.27;92.69;99063.50;5050062;28;20668;-70
2023/03/05 06:04:32;;;;;;;34.60;24.57;;;;;;;7.31;92.46;99067.41;5050932;28;20247;-69
2023/03/05 06:06:59;;;;;;;34.43;23.50;;;;;;;7.45;92.18;99067.38;5051521;28;20192;-70
2023/03/05 06:09:26;;;;;;;40.53;23.70;;;;;;;7.56;90.71;99066.88;5051721;28;20204;-69
2023/03/05 06:11:52;;;;;;;29.77;21.57;;;;;;;7.64;90.19;99068.59;5052881;28;20560;-70
2023/03/05 06:14:19;;;;;;;34.83;21.83;;;;;;;7.71;90.20;99070.28;5071297;28;20284;-70
2023/03/05 06:16:46;;;;;;;31.87;20.63;;;;;;;7.78;90.09;99073.81;5071738;28;20196;-71
2023/03/05 06:19:14;;;;;;;55.03;22.60;;;;;;;7.79;88.47;99067.53;5071666;28;20192;-71
2023/03/05 06:21:43;;;;;;;39.63;21.17;;;;;;;7.83;89.75;99067.94;5057757;28;20211;-69
2023/03/05 06:24:11;;;;;;;31.60;22.77;;;;;;;7.79;88.98;99069.34;5051541;28;20196;-72
2023/03/05 06:26:37;;;;;;;27.07;21.00;;;;;;;7.82;88.65;99066.31;5051743;28;20208;-71
2023/03/05 06:29:04;;;;;;;30.10;20.00;;;;;;;8.00;89.73;99074.66;5053212;28;20268;-70
2023/03/05 06:31:31;;;;;;;26.50;20.30;;;;;;;8.11;87.80;99082.88;5071605;28;20240;-70
2023/03/05 06:34:01;;;;;;;41.27;22.33;;;;;;;8.14;87.77;99081.69;5071137;28;20226;-72
2023/03/05 06:36:28;;;;;;;31.57;21.97;;;;;;;8.19;87.30;99085.41;5071220;28;20286;-71
2023/03/05 06:38:57;;;;;;;37.90;26.77;;;;;;;8.19;87.24;99082.75;5071172;28;20281;-70
2023/03/05 06:41:29;;;;;;;37.50;26.80;;;;;;;8.24;88.44;99082.19;5051458;28;20195;-69
2023/03/05 06:44:01;;;;;;;36.43;25.17;;;;;;;8.37;88.69;99077.03;5051160;28;20246;-70
2023/03/05 06:46:29;;;;;;;39.97;26.23;;;;;;;8.44;87.18;99083.16;5051247;28;20189;-69
2023/03/05 06:48:56;;;;;;;34.63;27.23;;;;;;;8.57;87.18;99077.97;5050953;28;20193;-68
2023/03/05 06:51:26;;;;;;;35.60;25.37;;;;;;;8.85;86.60;99076.09;5050625;28;20199;-69
2023/03/05 06:53:54;;;;;;;34.60;26.53;;;;;;;9.29;87.13;99074.72;5051239;28;20278;-69
2023/03/05 06:56:23;;;;;;;34.60;25.37;;;;;;;9.95;84.49;99083.66;5050361;28;20193;-69
2023/03/05 06:58:51;;;;;;;39.33;28.70;;;;;;;10.47;80.72;99087.19;5049606;28;20643;-67
2023/03/05 07:01:18;;;;;;;34.20;24.97;;;;;;;11.16;79.11;99084.00;5049983;28;20192;-69
2023/03/05 07:03:48;;;;;;;30.87;23.20;;;;;;;11.72;75.70;99099.13;5058754;28;20541;-68
2023/03/05 07:06:15;;;;;;;26.33;20.30;;;;;;;12.10;74.46;99091.94;5067836;28;20197;-69
2023/03/05 07:08:43;;;;;;;28.27;20.67;;;;;;;12.34;73.08;99091.16;5051802;28;20543;-69
2023/03/05 07:11:11;;;;;;;27.50;20.07;;;;;;;12.67;69.81;99098.88;5054494;28;20206;-69
2023/03/05 07:13:39;;;;;;;24.37;21.20;;;;;;;12.93;68.58;99104.75;5055944;28;20247;-71
2023/03/05 07:16:06;;;;;;;29.07;19.53;;;;;;;12.92;69.97;99103.13;5054038;28;20199;-70
2023/03/05 07:18:33;;;;;;;49.97;19.53;;;;;;;13.21;68.78;99118.44;5054073;28;20683;-69
2023/03/05 07:21:02;;;;;;;28.67;19.40;;;;;;;13.64;68.66;99113.03;5053899;28;20219;-71
2023/03/05 07:23:29;;;;;;;26.13;19.43;;;;;;;13.98;65.89;99115.84;5054011;28;20258;-65
2023/03/05 07:25:56;;;;;;;25.33;18.87;;;;;;;13.58;65.99;99120.06;5054522;28;20292;-64
2023/03/05 07:28:22;;;;;;;26.33;18.87;;;;;;;13.35;66.00;99105.78;5054429;28;20191;-64
2023/03/05 07:30:56;;;;;;;26.40;19.33;;;;;;;13.60;69.91;99085.94;5054368;28;20228;-63
2023/03/05 07:33:23;;;;;;;22.63;18.73;;;;;;;14.15;65.19;99110.66;5053793;28;20186;-66
2023/03/05 07:35:50;;;;;;;30.37;20.30;;;;;;;14.52;64.29;99104.97;5053996;28;20773;-65
2023/03/05 07:38:17;;;;;;;20.43;18.10;;;;;;;15.03;69.15;99080.22;5053847;28;20667;-65
2023/03/05 07:40:44;;;;;;;26.13;19.90;;;;;;;15.56;61.24;99113.75;5053568;28;20254;-67
2023/03/05 07:43:10;;;;;;;25.10;19.33;;;;;;;15.51;63.15;99102.94;5053779;28;20200;-67
2023/03/05 07:45:39;;;;;;;22.43;18.50;;;;;;;15.75;62.38;99101.00;5053161;28;20200;-67
2023/03/05 07:48:13;;;;;;;23.33;17.87;;;;;;;15.96;62.22;99094.19;5053716;28;20196;-66
2023/03/05 07:50:40;;;;;;;43.97;19.97;;;;;;;16.14;62.65;99093.97;5053117;28;20181;-66
2023/03/05 07:53:07;;;;;;;26.10;21.30;;;;;;;16.34;57.58;99105.03;5044207;28;20196;-69
2023/03/05 07:55:34;;;;;;;25.13;18.07;;;;;;;16.64;57.04;99092.16;5052069;28;20216;-70
2023/03/05 07:58:01;;;;;;;30.43;16.57;;;;;;;16.83;53.96;99088.16;5044666;28;20658;-69
2023/03/05 08:00:29;;;;;;;17.20;15.10;;;;;;;17.10;54.95;99076.47;5055741;28;20194;-68
2023/03/05 08:02:55;;;;;;;15.47;13.60;;;;;;;17.16;56.05;99070.16;5054999;28;20296;-68
2023/03/05 08:05:23;;;;;;;17.27;14.73;;;;;;;17.45;52.92;99062.75;5053386;28;20231;-68
2023/03/05 08:07:50;;;;;;;17.37;14.63;;;;;;;17.80;54.70;99063.16;5052447;28;20718;-83
2023/03/05 08:10:17;;;;;;;13.97;12.77;;;;;;;18.45;54.27;99066.47;5052737;28;20189;-74
2023/03/05 08:12:44;;;;;;;20.67;13.87;;;;;;;18.60;53.58;99055.84;5048175;28;20192;-73
2023/03/05 08:15:11;;;;;;;18.33;13.80;;;;;;;18.78;51.96;99052.75;5051324;28;20212;-78
2023/03/05 08:17:38;;;;;;;15.00;13.53;;;;;;;18.47;52.26;99053.59;5052480;28;20680;-78
2023/03/05 08:20:09;;;;;;;26.40;18.10;;;;;;;18.33;50.03;99065.81;5052054;28;20677;-78
2023/03/05 08:22:38;;;;;;;17.80;15.80;;;;;;;18.07;50.11;99053.19;5053407;28;20274;-77
2023/03/05 08:25:06;;;;;;;20.77;15.40;;;;;;;17.63;51.10;99048.97;5052931;28;20195;-77
2023/03/05 08:27:33;;;;;;;23.13;16.33;;;;;;;17.54;51.97;99045.13;5052740;28;20198;-77
2023/03/05 08:30:01;;;;;;;17.90;14.17;;;;;;;17.82;53.96;99036.84;5052826;28;20309;-74
2023/03/05 08:32:28;;;;;;;22.83;15.27;;;;;;;17.62;52.62;99048.19;5051435;28;20206;-71
2023/03/05 08:34:57;;;;;;;19.00;16.20;;;;;;;17.24;52.67;99039.38;5052396;28;20236;-72
2023/03/05 08:37:24;;;;;;;33.37;17.07;;;;;;;17.05;54.19;99029.97;5052223;28;20279;-70
2023/03/05 08:39:52;;;;;;;20.63;16.17;;;;;;;16.84;54.39;99023.53;5052532;28;20254;-70
2023/03/05 08:42:19;;;;;;;117.23;22.50;;;;;;;16.59;54.75;99030.41;5066960;28;20241;-71
2023/03/05 08:44:45;;;;;;;22.27;16.67;;;;;;;16.31;56.12;99019.75;5072496;28;20188;-72
2023/03/05 08:47:12;;;;;;;18.87;16.60;;;;;;;15.93;56.46;99021.28;5056792;28;20200;-70
2023/03/05 08:49:39;;;;;;;23.87;17.30;;;;;;;15.46;57.38;98973.56;5051771;28;20246;-69
2023/03/05 08:52:06;;;;;;;22.97;18.60;;;;;;;15.47;58.71;99004.63;5045003;28;20741;-70
2023/03/05 08:54:33;;;;;;;23.83;17.33;;;;;;;15.42;58.32;99013.38;5071877;28;20699;-70
2023/03/05 08:57:01;;;;;;;25.20;18.80;;;;;;;15.42;57.93;99001.84;5072340;28;20733;-68
2023/03/05 08:59:28;;;;;;;21.07;17.73;;;;;;;15.53;58.14;99009.81;5061133;28;20259;-68
2023/03/05 09:01:55;;;;;;;22.73;17.83;;;;;;;15.15;60.31;99004.22;5051202;28;20199;-71
2023/03/05 09:04:22;;;;;;;25.00;20.97;;;;;;;14.63;60.49;98996.44;5050752;28;20220;-69
2023/03/05 09:06:49;;;;;;;30.07;19.23;;;;;;;14.42;61.29;99005.84;5048968;28;20205;-71
2023/03/05 09:09:15;;;;;;;30.43;18.90;;;;;;;14.62;61.50;98995.59;5052900;28;20273;-71
2023/03/05 09:11:42;;;;;;;30.60;18.77;;;;;;;14.70;61.47;99000.59;5071858;28;20261;-71
2023/03/05 09:14:11;;;;;;;25.40;18.93;;;;;;;14.25;62.20;98956.81;5057509;28;20734;-71
2023/03/05 09:16:39;;;;;;;23.37;17.37;;;;;;;14.59;63.34;98990.72;5052411;28;20644;-70
2023/03/05 09:19:07;;;;;;;21.17;16.83;;;;;;;14.30;61.34;98997.00;5052306;28;20196;-70
2023/03/05 09:21:34;;;;;;;20.30;17.20;;;;;;;13.89;64.40;98990.91;5062992;28;20655;-68
2023/03/05 09:24:01;;;;;;;26.10;18.20;;;;;;;13.86;63.41;98989.50;5071863;28;20196;-69
2023/03/05 09:26:28;;;;;;;25.57;18.07;;;;;;;13.66;62.22;98991.66;5061757;28;20200;-68
2023/03/05 09:28:55;;;;;;;30.60;17.83;;;;;;;13.60;62.82;98987.22;5052188;28;20193;-69
2023/03/05 09:31:23;;;;;;;24.13;17.47;;;;;;;13.58;62.79;98983.97;5051631;28;20192;-72
2023/03/05 09:33:50;;;;;;;43.87;16.70;;;;;;;13.83;62.53;98971.25;5067496;28;20204;-71
2023/03/05 09:36:20;;;;;;;41.97;18.17;;;;;;;14.01;61.86;98970.38;5071494;28;20698;-72
2023/03/05 09:38:47;;;;;;;23.67;17.10;;;;;;;14.22;62.06;98967.97;5071947;28;20211;-72
2023/03/05 09:41:23;;;;;;;22.67;17.20;;;;;;;14.31;61.41;98955.91;5056593;28;20197;-74
2023/03/05 09:44:00;;;;;;;26.10;17.70;;;;;;;14.55;61.51;98957.50;5050539;28;20536;-73
2023/03/05 09:46:47;;;;;;;22.70;15.37;;;;;;;14.50;59.56;98960.06;5051359;28;20587;-70
2023/03/05 09:49:18;;;;;;;20.17;16.03;;;;;;;14.54;59.12;98961.22;5051475;28;20250;-70
2023/03/05 09:51:47;;;;;;;21.30;15.20;;;;;;;14.72;58.85;98958.41;5062944;28;20656;-70
2023/03/05 09:54:18;;;;;;;19.67;15.67;;;;;;;14.84;58.20;98950.38;5031570;28;20199;-69
2023/03/05 09:56:48;;;;;;;21.87;16.47;;;;;;;15.19;57.83;98959.91;5031860;28;20636;-69
2023/03/05 09:59:26;;;;;;;23.17;16.40;;;;;;;15.31;57.06;98952.63;5045560;28;20308;-69
2023/03/05 10:01:59;;;;;;;26.20;15.87;;;;;;;15.18;56.23;98946.75;5049485;28;20287;-68
2023/03/05 10:04:29;;;;;;;25.00;16.43;;;;;;;15.07;56.62;98939.59;5061405;28;20244;-68
2023/03/05 10:06:59;;;;;;;25.13;16.73;;;;;;;15.11;56.68;98938.88;5071360;28;20283;-68
2023/03/05 10:09:42;;;;;;;23.03;16.40;;;;;;;15.10;57.93;98918.53;5071544;28;20352;-68
2023/03/05 10:12:18;;;;;;;20.63;15.90;;;;;;;14.93;57.36;98931.03;5071379;28;20241;-65
2023/03/05 10:14:45;;;;;;;24.27;17.23;;;;;;;14.81;58.25;98929.44;5051740;28;20181;-63
2023/03/05 10:17:39;;;;;;;20.37;15.43;;;;;;;14.75;58.38;98925.84;5050598;28;20196;-63
2023/03/05 10:20:28;;;;;;;25.60;17.60;;;;;;;14.73;58.32;98919.09;5049068;28;20616;-65
2023/03/05 10:23:05;;;;;;;29.43;16.73;;;;;;;14.80;58.09;98912.59;5031501;28;20181;-65
2023/03/05 10:25:49;;;;;;;23.03;16.63;;;;;;;14.64;59.00;98902.66;5039576;28;20622;-65
2023/03/05 10:28:18;;;;;;;33.40;17.80;;;;;;;14.76;58.38;98897.25;5051817;28;20614;-65
2023/03/05 10:31:01;;;;;;;26.13;18.00;;;;;;;14.93;57.54;98901.63;5051747;28;20189;-65
2023/03/05 10:33:38;;;;;;;22.50;17.00;;;;;;;14.98;57.08;98893.69;5051713;28;20184;-65
2023/03/05 10:36:29;;;;;;;26.10;16.13;;;;;;;15.12;56.75;98889.66;5050965;28;20204;-66
2023/03/05 10:39:15;;;;;;;79.53;19.63;;;;;;;15.25;55.93;98885.91;5054960;28;20196;-66
2023/03/05 10:41:54;;;;;;;20.67;15.83;;;;;;;15.36;55.21;98883.19;5071320;28;20180;-69
2023/03/05 10:44:32;;;;;;;31.90;15.47;;;;;;;15.13;56.40;98882.47;5073771;28;20245;-69
2023/03/05 10:47:00;;;;;;;16.70;14.30;;;;;;;15.42;56.42;98863.50;5074904;28;20191;-69
2023/03/05 10:49:32;;;;;;;21.33;14.80;;;;;;;15.89;53.88;98870.13;5055670;28;20250;-67
2023/03/05 10:52:07;;;;;;;23.27;14.17;;;;;;;15.98;51.83;98867.03;5052775;28;20569;-67
2023/03/05 10:54:35;;;;;;;18.50;13.23;;;;;;;16.06;50.84;98874.66;5034914;28;20239;-68
2023/03/05 10:57:13;;;;;;;21.33;13.20;;;;;;;15.80;50.45;98855.53;5035147;28;20279;-67
2023/03/05 10:59:44;;;;;;;16.50;12.37;;;;;;;15.71;50.02;98856.19;5052352;28;20281;-67
2023/03/05 11:02:10;;;;;;;17.80;13.07;;;;;;;15.47;50.16;98838.66;5054939;28;20185;-66
2023/03/05 11:04:40;;;;;;;18.03;12.43;;;;;;;15.69;51.07;98835.00;5054618;28;20254;-65
2023/03/05 11:07:29;;;;;;;19.80;13.27;;;;;;;15.82;51.21;98831.19;5054896;28;20197;-68
2023/03/05 11:10:13;;;;;;;17.03;14.67;;;;;;;16.29;50.38;98820.88;5054693;28;20690;-65
2023/03/05 11:12:40;;;;;;;16.53;13.47;;;;;;;16.64;49.85;98814.09;5057712;28;20184;-68
2023/03/05 11:15:25;;;;;;;27.33;16.87;;;;;;;16.70;48.65;98805.03;5058429;28;20270;-65
2023/03/05 11:18:06;;;;;;;25.57;15.53;;;;;;;17.03;48.43;98795.97;5052231;28;20212;-68
2023/03/05 11:20:36;;;;;;;15.57;13.93;;;;;;;17.11;48.01;98792.84;5034972;28;20247;-68
2023/03/05 11:23:06;;;;;;;15.17;12.83;;;;;;;16.75;47.54;98782.81;5051358;28;20199;-66
2023/03/05 11:25:34;;;;;;;15.93;13.27;;;;;;;16.89;46.95;98784.03;5051805;28;20185;-67
2023/03/05 11:28:03;;;;;;;13.87;12.47;;;;;;;16.70;48.21;98770.16;5054574;28;20197;-65